RYR1278 LMML-LICA
Flight info
| Callsign | RYR1278 |
|---|---|
| Flight time | 0h 45m |
| Altitude | 32000 |
| Route | GZO P623 OLLEK DCT ARFOL DCT ROMSU/N0335F180 L137 RCA |
| Aircraft | B38M/M-SDE1FGHILORVWXY/HB1 |
Departure
| Time | 2026-04-16 10:04 |
|---|---|
| Airport | Malta International Airport (LMML) |
Arrival
| Time | 2026-04-16 10:49 |
|---|---|
| Airport | Lamezia Terme Sant'Eufemia International Airport (LICA) |
| Time | Latitude | Longitude | Altitude | Speed | Heading |
|---|---|---|---|---|---|
| 2026-04-16 09:47 | 35.84833 | 14.49286 | 260 ft | 0 kts | 44° |
| 2026-04-16 09:58 | 35.84846 | 14.49301 | 261 ft | 7 kts | 44° |
| 2026-04-16 09:59 | 35.84865 | 14.49345 | 261 ft | 3 kts | 98° |
| 2026-04-16 09:59 | 35.84843 | 14.49380 | 261 ft | 8 kts | 134° |
| 2026-04-16 09:59 | 35.84780 | 14.49458 | 261 ft | 16 kts | 134° |
| 2026-04-16 09:59 | 35.84689 | 14.49560 | 261 ft | 19 kts | 151° |
| 2026-04-16 10:00 | 35.84589 | 14.49540 | 261 ft | 12 kts | 215° |
| 2026-04-16 10:00 | 35.84544 | 14.49543 | 261 ft | 5 kts | 141° |
| 2026-04-16 10:00 | 35.84501 | 14.49589 | 261 ft | 13 kts | 142° |
| 2026-04-16 10:01 | 35.84256 | 14.49694 | 258 ft | 21 kts | 165° |
| 2026-04-16 10:01 | 35.84119 | 14.49780 | 257 ft | 23 kts | 141° |
| 2026-04-16 10:01 | 35.83995 | 14.49920 | 257 ft | 26 kts | 134° |
| 2026-04-16 10:01 | 35.83856 | 14.50095 | 258 ft | 31 kts | 134° |
| 2026-04-16 10:02 | 35.83694 | 14.50294 | 256 ft | 35 kts | 136° |
| 2026-04-16 10:02 | 35.83564 | 14.50499 | 253 ft | 19 kts | 123° |
| 2026-04-16 10:02 | 35.83532 | 14.50515 | 252 ft | 2 kts | 200° |
| 2026-04-16 10:02 | 35.83526 | 14.50504 | 252 ft | 2 kts | 254° |
| 2026-04-16 10:03 | 35.83534 | 14.50483 | 253 ft | 4 kts | 314° |
| 2026-04-16 10:03 | 35.83566 | 14.50453 | 253 ft | 0 kts | 313° |
| 2026-04-16 10:03 | 35.83620 | 14.50387 | 254 ft | 41 kts | 315° |
| 2026-04-16 10:03 | 35.84006 | 14.49908 | 257 ft | 114 kts | 315° |
| 2026-04-16 10:04 | 35.84687 | 14.49047 | 433 ft | 153 kts | 318° |
| 2026-04-16 10:04 | 35.85498 | 14.48112 | 1033 ft | 172 kts | 323° |
| 2026-04-16 10:04 | 35.86419 | 14.46983 | 1509 ft | 202 kts | 317° |
| 2026-04-16 10:04 | 35.87353 | 14.45596 | 2198 ft | 216 kts | 311° |
| 2026-04-16 10:05 | 35.88263 | 14.44103 | 3088 ft | 225 kts | 310° |
| 2026-04-16 10:05 | 35.89263 | 14.42501 | 3672 ft | 246 kts | 311° |
| 2026-04-16 10:05 | 35.90344 | 14.40792 | 4485 ft | 253 kts | 311° |
| 2026-04-16 10:05 | 35.91444 | 14.39071 | 5333 ft | 262 kts | 311° |
| 2026-04-16 10:06 | 35.92669 | 14.37300 | 5900 ft | 279 kts | 322° |
| 2026-04-16 10:06 | 35.94388 | 14.36356 | 6647 ft | 272 kts | 359° |
| 2026-04-16 10:06 | 35.96256 | 14.36642 | 7604 ft | 269 kts | 20° |
| 2026-04-16 10:06 | 35.98047 | 14.37305 | 8540 ft | 273 kts | 18° |
| 2026-04-16 10:07 | 35.99907 | 14.37950 | 9570 ft | 277 kts | 18° |
| 2026-04-16 10:07 | 36.01779 | 14.38590 | 10411 ft | 285 kts | 18° |
| 2026-04-16 10:07 | 36.03751 | 14.39251 | 10917 ft | 303 kts | 17° |
| 2026-04-16 10:07 | 36.05809 | 14.39934 | 11537 ft | 315 kts | 18° |
| 2026-04-16 10:08 | 36.07943 | 14.40646 | 12296 ft | 320 kts | 18° |
| 2026-04-16 10:08 | 36.10105 | 14.41377 | 13168 ft | 324 kts | 18° |
| 2026-04-16 10:08 | 36.12299 | 14.42118 | 13913 ft | 328 kts | 18° |
| 2026-04-16 10:08 | 36.14509 | 14.42867 | 14666 ft | 331 kts | 18° |
| 2026-04-16 10:09 | 36.16743 | 14.43625 | 15346 ft | 335 kts | 18° |
| 2026-04-16 10:09 | 36.19005 | 14.44393 | 16013 ft | 338 kts | 18° |
| 2026-04-16 10:09 | 36.21285 | 14.45168 | 16655 ft | 342 kts | 18° |
| 2026-04-16 10:09 | 36.23594 | 14.45954 | 17269 ft | 345 kts | 18° |
| 2026-04-16 10:10 | 36.25921 | 14.46746 | 17874 ft | 349 kts | 17° |
| 2026-04-16 10:10 | 36.28270 | 14.47546 | 18418 ft | 352 kts | 18° |
| 2026-04-16 10:10 | 36.30641 | 14.48355 | 18861 ft | 356 kts | 18° |
| 2026-04-16 10:10 | 36.33047 | 14.49176 | 19325 ft | 359 kts | 18° |
| 2026-04-16 10:11 | 36.35487 | 14.50010 | 19782 ft | 362 kts | 18° |
| 2026-04-16 10:11 | 36.37902 | 14.50835 | 20200 ft | 366 kts | 18° |
| 2026-04-16 10:11 | 36.40363 | 14.51676 | 20654 ft | 368 kts | 18° |
| 2026-04-16 10:11 | 36.42871 | 14.52535 | 21065 ft | 372 kts | 18° |
| 2026-04-16 10:12 | 36.45377 | 14.53393 | 21485 ft | 375 kts | 18° |
| 2026-04-16 10:12 | 36.47045 | 14.53965 | 21760 ft | 377 kts | 18° |
| 2026-04-16 10:12 | 36.50446 | 14.55131 | 22291 ft | 380 kts | 18° |
| 2026-04-16 10:12 | 36.53000 | 14.56008 | 22679 ft | 383 kts | 18° |
| 2026-04-16 10:13 | 36.55581 | 14.56894 | 23051 ft | 386 kts | 18° |
| 2026-04-16 10:13 | 36.58174 | 14.57785 | 23398 ft | 388 kts | 18° |
| 2026-04-16 10:13 | 36.60786 | 14.58683 | 23729 ft | 391 kts | 18° |
| 2026-04-16 10:13 | 36.63410 | 14.59586 | 24036 ft | 393 kts | 18° |
| 2026-04-16 10:14 | 36.66053 | 14.60496 | 24345 ft | 394 kts | 18° |
| 2026-04-16 10:14 | 36.68701 | 14.61410 | 24648 ft | 396 kts | 18° |
| 2026-04-16 10:14 | 36.71349 | 14.62323 | 24934 ft | 397 kts | 18° |
| 2026-04-16 10:14 | 36.74030 | 14.63249 | 25213 ft | 399 kts | 18° |
| 2026-04-16 10:15 | 36.76703 | 14.64173 | 25498 ft | 400 kts | 18° |
| 2026-04-16 10:15 | 36.79399 | 14.65105 | 25777 ft | 402 kts | 18° |
| 2026-04-16 10:15 | 36.82101 | 14.66014 | 26035 ft | 404 kts | 14° |
| 2026-04-16 10:15 | 36.84884 | 14.66616 | 26340 ft | 406 kts | 12° |
| 2026-04-16 10:16 | 36.87676 | 14.67225 | 26612 ft | 408 kts | 13° |
| 2026-04-16 10:16 | 36.90472 | 14.67855 | 26884 ft | 409 kts | 13° |
| 2026-04-16 10:16 | 36.93270 | 14.68496 | 27141 ft | 411 kts | 13° |
| 2026-04-16 10:16 | 36.96091 | 14.69146 | 27411 ft | 412 kts | 13° |
| 2026-04-16 10:17 | 36.98909 | 14.69797 | 27661 ft | 413 kts | 13° |
| 2026-04-16 10:17 | 37.01747 | 14.70455 | 27885 ft | 415 kts | 13° |
| 2026-04-16 10:17 | 37.04586 | 14.71113 | 28100 ft | 416 kts | 13° |
| 2026-04-16 10:17 | 37.07424 | 14.71771 | 28399 ft | 415 kts | 13° |
| 2026-04-16 10:18 | 37.10271 | 14.72432 | 28577 ft | 416 kts | 13° |
| 2026-04-16 10:18 | 37.13136 | 14.73098 | 28770 ft | 418 kts | 13° |
| 2026-04-16 10:18 | 37.15995 | 14.73762 | 28978 ft | 419 kts | 13° |
| 2026-04-16 10:18 | 37.18865 | 14.74431 | 29186 ft | 420 kts | 13° |
| 2026-04-16 10:19 | 37.21727 | 14.75123 | 29367 ft | 420 kts | 17° |
| 2026-04-16 10:19 | 37.24404 | 14.76504 | 29573 ft | 415 kts | 35° |
| 2026-04-16 10:19 | 37.26732 | 14.78635 | 29827 ft | 414 kts | 39° |
| 2026-04-16 10:19 | 37.29031 | 14.80793 | 30078 ft | 414 kts | 39° |
| 2026-04-16 10:20 | 37.31322 | 14.82981 | 30371 ft | 413 kts | 39° |
| 2026-04-16 10:20 | 37.33603 | 14.85188 | 30666 ft | 412 kts | 40° |
| 2026-04-16 10:20 | 37.35863 | 14.87391 | 30962 ft | 411 kts | 40° |
| 2026-04-16 10:20 | 37.38116 | 14.89595 | 31274 ft | 410 kts | 40° |
| 2026-04-16 10:21 | 37.40370 | 14.91802 | 31599 ft | 410 kts | 40° |
| 2026-04-16 10:21 | 37.42612 | 14.94000 | 31902 ft | 410 kts | 40° |
| 2026-04-16 10:21 | 37.44870 | 14.96219 | 32013 ft | 412 kts | 41° |
| 2026-04-16 10:21 | 37.47038 | 14.98549 | 32015 ft | 409 kts | 43° |
| 2026-04-16 10:22 | 37.51341 | 15.03220 | 32025 ft | 409 kts | 43° |
| 2026-04-16 10:22 | 37.55660 | 15.07887 | 32024 ft | 409 kts | 43° |
| 2026-04-16 10:23 | 37.59981 | 15.12559 | 32026 ft | 409 kts | 43° |
| 2026-04-16 10:23 | 37.64287 | 15.17223 | 32023 ft | 409 kts | 43° |
| 2026-04-16 10:24 | 37.68602 | 15.21904 | 32020 ft | 408 kts | 43° |
| 2026-04-16 10:24 | 37.72905 | 15.26579 | 32017 ft | 408 kts | 43° |
| 2026-04-16 10:25 | 37.77117 | 15.31372 | 32026 ft | 407 kts | 53° |
| 2026-04-16 10:25 | 37.80198 | 15.37347 | 32024 ft | 407 kts | 59° |
| 2026-04-16 10:26 | 37.83252 | 15.43374 | 32049 ft | 407 kts | 59° |
| 2026-04-16 10:26 | 37.86275 | 15.49412 | 32035 ft | 406 kts | 60° |
| 2026-04-16 10:27 | 37.89263 | 15.55401 | 31899 ft | 393 kts | 60° |
| 2026-04-16 10:27 | 37.90706 | 15.58296 | 31654 ft | 384 kts | 60° |
| 2026-04-16 10:27 | 37.92125 | 15.61151 | 31207 ft | 382 kts | 60° |
| 2026-04-16 10:28 | 37.93533 | 15.63979 | 30768 ft | 380 kts | 60° |
| 2026-04-16 10:28 | 37.94467 | 15.65858 | 30478 ft | 378 kts | 60° |
| 2026-04-16 10:28 | 37.95881 | 15.68704 | 30043 ft | 376 kts | 60° |
| 2026-04-16 10:28 | 37.97272 | 15.71506 | 29509 ft | 374 kts | 60° |
| 2026-04-16 10:29 | 37.98647 | 15.74279 | 29086 ft | 370 kts | 60° |
| 2026-04-16 10:29 | 38.00009 | 15.77029 | 28674 ft | 367 kts | 60° |
| 2026-04-16 10:29 | 38.01345 | 15.79728 | 28244 ft | 364 kts | 60° |
| 2026-04-16 10:29 | 38.02718 | 15.82503 | 27446 ft | 372 kts | 60° |
| 2026-04-16 10:30 | 38.04086 | 15.85273 | 26633 ft | 379 kts | 60° |
| 2026-04-16 10:30 | 38.05514 | 15.88165 | 25849 ft | 385 kts | 60° |
| 2026-04-16 10:30 | 38.06924 | 15.91022 | 25339 ft | 385 kts | 59° |
| 2026-04-16 10:30 | 38.08323 | 15.93863 | 25161 ft | 376 kts | 59° |
| 2026-04-16 10:31 | 38.09707 | 15.96672 | 24687 ft | 375 kts | 59° |
| 2026-04-16 10:31 | 38.11088 | 15.99480 | 24215 ft | 375 kts | 59° |
| 2026-04-16 10:31 | 38.12467 | 16.02284 | 23733 ft | 375 kts | 59° |
| 2026-04-16 10:31 | 38.13845 | 16.05091 | 23215 ft | 374 kts | 59° |
| 2026-04-16 10:32 | 38.15219 | 16.07891 | 22662 ft | 374 kts | 59° |
| 2026-04-16 10:32 | 38.16598 | 16.10704 | 22119 ft | 373 kts | 59° |
| 2026-04-16 10:32 | 38.17967 | 16.13500 | 21599 ft | 373 kts | 59° |
| 2026-04-16 10:32 | 38.19332 | 16.16287 | 21064 ft | 369 kts | 59° |
| 2026-04-16 10:33 | 38.20664 | 16.19010 | 20564 ft | 358 kts | 59° |
| 2026-04-16 10:33 | 38.21964 | 16.21671 | 20047 ft | 348 kts | 59° |
| 2026-04-16 10:33 | 38.23224 | 16.24253 | 19563 ft | 340 kts | 59° |
| 2026-04-16 10:33 | 38.24458 | 16.26782 | 19087 ft | 332 kts | 59° |
| 2026-04-16 10:34 | 38.25663 | 16.29255 | 18611 ft | 325 kts | 59° |
| 2026-04-16 10:34 | 38.26842 | 16.31674 | 18107 ft | 319 kts | 60° |
| 2026-04-16 10:34 | 38.28000 | 16.34054 | 17572 ft | 314 kts | 59° |
| 2026-04-16 10:34 | 38.29143 | 16.36402 | 17032 ft | 309 kts | 60° |
| 2026-04-16 10:35 | 38.30261 | 16.38703 | 16532 ft | 304 kts | 59° |
| 2026-04-16 10:35 | 38.31368 | 16.40980 | 16013 ft | 301 kts | 60° |
| 2026-04-16 10:35 | 38.32463 | 16.43237 | 15514 ft | 298 kts | 60° |
| 2026-04-16 10:35 | 38.33546 | 16.45470 | 15024 ft | 295 kts | 60° |
| 2026-04-16 10:36 | 38.34622 | 16.47688 | 14539 ft | 294 kts | 59° |
| 2026-04-16 10:36 | 38.35695 | 16.49903 | 14054 ft | 291 kts | 60° |
| 2026-04-16 10:36 | 38.36752 | 16.52087 | 13534 ft | 289 kts | 59° |
| 2026-04-16 10:36 | 38.37807 | 16.54264 | 12999 ft | 288 kts | 60° |
| 2026-04-16 10:37 | 38.39033 | 16.56274 | 12437 ft | 290 kts | 42° |
| 2026-04-16 10:37 | 38.40810 | 16.57463 | 11873 ft | 292 kts | 15° |
| 2026-04-16 10:37 | 38.42829 | 16.57553 | 11341 ft | 293 kts | 349° |
| 2026-04-16 10:37 | 38.44726 | 16.56642 | 10850 ft | 292 kts | 334° |
| 2026-04-16 10:38 | 38.46562 | 16.55492 | 10389 ft | 297 kts | 334° |
| 2026-04-16 10:38 | 38.48420 | 16.54324 | 9910 ft | 298 kts | 334° |
| 2026-04-16 10:38 | 38.50314 | 16.53242 | 9391 ft | 298 kts | 343° |
| 2026-04-16 10:38 | 38.52342 | 16.52747 | 8895 ft | 297 kts | 358° |
| 2026-04-16 10:39 | 38.54389 | 16.52860 | 8502 ft | 291 kts | 10° |
| 2026-04-16 10:39 | 38.56339 | 16.53453 | 8170 ft | 285 kts | 20° |
| 2026-04-16 10:39 | 38.58126 | 16.54453 | 7844 ft | 278 kts | 31° |
| 2026-04-16 10:39 | 38.59708 | 16.55819 | 7513 ft | 273 kts | 42° |
| 2026-04-16 10:40 | 38.61067 | 16.57485 | 7195 ft | 269 kts | 46° |
| 2026-04-16 10:40 | 38.62493 | 16.59040 | 6881 ft | 270 kts | 38° |
| 2026-04-16 10:40 | 38.64037 | 16.60399 | 6600 ft | 271 kts | 33° |
| 2026-04-16 10:40 | 38.65680 | 16.61598 | 6302 ft | 272 kts | 28° |
| 2026-04-16 10:41 | 38.67397 | 16.62612 | 5983 ft | 272 kts | 23° |
| 2026-04-16 10:41 | 38.69177 | 16.63434 | 5684 ft | 272 kts | 18° |
| 2026-04-16 10:41 | 38.71004 | 16.64054 | 5369 ft | 271 kts | 13° |
| 2026-04-16 10:41 | 38.72849 | 16.64465 | 5057 ft | 265 kts | 7° |
| 2026-04-16 10:42 | 38.74651 | 16.64668 | 4803 ft | 255 kts | 2° |
| 2026-04-16 10:42 | 38.76392 | 16.64683 | 4527 ft | 246 kts | 358° |
| 2026-04-16 10:42 | 38.78066 | 16.64524 | 4253 ft | 237 kts | 353° |
| 2026-04-16 10:42 | 38.79675 | 16.64213 | 3980 ft | 232 kts | 349° |
| 2026-04-16 10:43 | 38.81236 | 16.63753 | 3716 ft | 230 kts | 345° |
| 2026-04-16 10:43 | 38.82762 | 16.63152 | 3479 ft | 229 kts | 341° |
| 2026-04-16 10:43 | 38.84248 | 16.62425 | 3198 ft | 227 kts | 336° |
| 2026-04-16 10:43 | 38.85526 | 16.61291 | 2914 ft | 225 kts | 308° |
| 2026-04-16 10:44 | 38.86222 | 16.59556 | 2680 ft | 220 kts | 283° |
| 2026-04-16 10:44 | 38.86516 | 16.57640 | 2605 ft | 216 kts | 281° |
| 2026-04-16 10:44 | 38.86814 | 16.55729 | 2575 ft | 219 kts | 280° |
| 2026-04-16 10:44 | 38.87077 | 16.53807 | 2597 ft | 219 kts | 278° |
| 2026-04-16 10:45 | 38.87309 | 16.51918 | 2561 ft | 219 kts | 278° |
| 2026-04-16 10:45 | 38.87543 | 16.49941 | 2528 ft | 219 kts | 277° |
| 2026-04-16 10:45 | 38.87764 | 16.48039 | 2517 ft | 218 kts | 277° |
| 2026-04-16 10:45 | 38.87991 | 16.46096 | 2522 ft | 213 kts | 276° |
| 2026-04-16 10:46 | 38.88207 | 16.44276 | 2479 ft | 201 kts | 277° |
| 2026-04-16 10:46 | 38.88411 | 16.42563 | 2456 ft | 188 kts | 277° |
| 2026-04-16 10:46 | 38.88613 | 16.40894 | 2247 ft | 187 kts | 277° |
| 2026-04-16 10:46 | 38.88793 | 16.39294 | 2097 ft | 175 kts | 276° |
| 2026-04-16 10:47 | 38.88965 | 16.37782 | 1872 ft | 169 kts | 275° |
| 2026-04-16 10:47 | 38.89131 | 16.36342 | 1681 ft | 159 kts | 276° |
| 2026-04-16 10:47 | 38.89291 | 16.34956 | 1431 ft | 154 kts | 276° |
| 2026-04-16 10:47 | 38.89445 | 16.33618 | 1207 ft | 149 kts | 277° |
| 2026-04-16 10:48 | 38.89595 | 16.32335 | 1012 ft | 146 kts | 277° |
| 2026-04-16 10:48 | 38.89746 | 16.31039 | 818 ft | 145 kts | 278° |
| 2026-04-16 10:48 | 38.89896 | 16.29764 | 658 ft | 144 kts | 277° |
| 2026-04-16 10:48 | 38.90045 | 16.28506 | 470 ft | 141 kts | 278° |
| 2026-04-16 10:49 | 38.90194 | 16.27241 | 305 ft | 145 kts | 278° |
| 2026-04-16 10:49 | 38.90339 | 16.25969 | 108 ft | 141 kts | 278° |
| 2026-04-16 10:49 | 38.90470 | 16.24830 | 41 ft | 104 kts | 279° |
| 2026-04-16 10:49 | 38.90545 | 16.24190 | 33 ft | 48 kts | 279° |
| 2026-04-16 10:50 | 38.90571 | 16.23983 | 33 ft | 24 kts | 277° |
| 2026-04-16 10:50 | 38.90596 | 16.23790 | 32 ft | 18 kts | 284° |
| 2026-04-16 10:50 | 38.90636 | 16.23650 | 32 ft | 19 kts | 297° |
| 2026-04-16 10:50 | 38.90722 | 16.23508 | 31 ft | 23 kts | 316° |
| 2026-04-16 10:51 | 38.90833 | 16.23497 | 30 ft | 15 kts | 28° |
| 2026-04-16 10:51 | 38.90851 | 16.23557 | 31 ft | 7 kts | 106° |
| 2026-04-16 10:51 | 38.90832 | 16.23647 | 31 ft | 15 kts | 101° |
| 2026-04-16 10:51 | 38.90811 | 16.23832 | 33 ft | 27 kts | 99° |
| 2026-04-16 10:52 | 38.90782 | 16.24080 | 34 ft | 26 kts | 98° |
| 2026-04-16 10:52 | 38.90826 | 16.24244 | 36 ft | 16 kts | 66° |
| 2026-04-16 10:52 | 38.90826 | 16.24355 | 36 ft | 0 kts | 70° |
| 2026-04-16 10:52 | 38.90828 | 16.24357 | 36 ft | 0 kts | 34° |
| 2026-04-16 10:53 | 38.90852 | 16.24360 | 36 ft | 8 kts | 3° |
| 2026-04-16 10:53 | 38.90874 | 16.24366 | 36 ft | 0 kts | 19° |